Time;durP1;ratioP1;P1;durP2;ratioP2;P2;SDS_P1;SDS_P2;PMS_P1;PMS_P2;Temp;Humidity;BMP_temperature;BMP_pressure;BME280_temperature;BME280_humidity;BME280_pressure;Samples;Min_cycle;Max_cycle;Signal;HPM_P1;HPM_P2
2022/01/09 00:06:04;;;;;;;10.07;6.15;;;;;;;20.75;nan;99701.72;20438412;28;97856;-61
2022/01/09 00:16:06;;;;;;;9.18;6.00;;;;;;;20.71;nan;99684.53;20413612;28;102075;-61
2022/01/09 00:26:09;;;;;;;9.57;5.97;;;;;;;20.68;nan;99666.38;20402957;28;97914;-60
2022/01/09 00:36:09;;;;;;;;;;;;;;;20.66;nan;99658.59;20396683;28;103050;-60
2022/01/09 00:46:10;;;;;;;9.47;6.03;;;;;;;20.59;nan;99657.47;20394655;28;101714;-60
2022/01/09 00:56:10;;;;;;;9.05;6.00;;;;;;;20.56;nan;99648.06;20402587;28;101313;-60
2022/01/09 01:06:13;;;;;;;10.10;6.45;;;;;;;20.51;nan;99634.47;20403695;28;98938;-60
2022/01/09 01:16:13;;;;;;;8.63;5.70;;;;;;;20.46;nan;99621.72;20406997;28;102582;-61
2022/01/09 01:26:14;;;;;;;10.70;6.38;;;;;;;20.42;nan;99601.94;20399948;28;102298;-60
2022/01/09 01:36:15;;;;;;;9.38;6.03;;;;;;;20.40;nan;99574.09;20418163;28;101366;-60
2022/01/09 01:46:17;;;;;;;8.35;5.82;;;;;;;20.35;nan;99561.34;20387555;28;99015;-61
2022/01/09 01:56:20;;;;;;;9.02;6.20;;;;;;;20.31;nan;99555.53;20415503;28;99257;-61
2022/01/09 02:06:21;;;;;;;8.57;5.70;;;;;;;20.29;nan;99546.13;20411191;28;101724;-59
2022/01/09 02:26:41;;;;;;;8.98;6.15;;;;;;;20.25;nan;99535.03;20433046;28;102084;-59
2022/01/09 02:36:42;;;;;;;8.27;6.13;;;;;;;20.24;nan;99516.78;20389199;28;106121;-60
2022/01/09 02:56:47;;;;;;;8.05;5.90;;;;;;;20.21;nan;99504.69;20436355;28;100069;-60
2022/01/09 03:06:47;;;;;;;8.60;5.70;;;;;;;20.19;nan;99498.78;20416675;28;98824;-60
2022/01/09 03:16:48;;;;;;;8.52;5.90;;;;;;;20.17;nan;99491.97;20398821;28;99215;-60
2022/01/09 03:26:48;;;;;;;8.20;5.78;;;;;;;20.12;nan;99490.56;20404591;28;100504;-60
2022/01/09 03:36:49;;;;;;;8.57;6.13;;;;;;;20.09;nan;99477.72;20423015;28;102382;-61
2022/01/09 03:46:49;;;;;;;9.15;6.28;;;;;;;20.08;nan;99462.06;20429720;28;98907;-60
2022/01/09 03:56:50;;;;;;;8.55;5.63;;;;;;;20.09;nan;99476.88;20415332;28;107286;-60
2022/01/09 04:06:52;;;;;;;9.57;6.50;;;;;;;20.05;nan;99475.47;20407587;28;99451;-61
2022/01/09 04:16:52;;;;;;;7.90;5.70;;;;;;;20.03;nan;99478.25;20409011;28;98582;-60
2022/01/09 04:26:53;;;;;;;9.75;6.22;;;;;;;20.01;nan;99459.16;20396054;28;99240;-60
2022/01/09 04:36:54;;;;;;;9.13;6.30;;;;;;;20.00;nan;99441.72;20405559;28;107133;-60
2022/01/09 04:47:08;;;;;;;11.00;6.15;;;;;;;20.00;nan;99436.47;20438466;28;100250;-60
2022/01/09 04:57:10;;;;;;;9.43;6.50;;;;;;;20.02;nan;99428.44;20383757;28;102501;-60
2022/01/09 05:07:10;;;;;;;11.88;6.43;;;;;;;20.02;nan;99433.69;20418438;28;103637;-59
2022/01/09 05:17:11;;;;;;;10.13;6.75;;;;;;;20.10;nan;99445.22;20381141;28;101443;-60
2022/01/09 05:27:11;;;;;;;9.27;6.43;;;;;;;20.17;nan;99427.09;20395492;28;98803;-60
2022/01/09 05:37:12;;;;;;;10.40;6.97;;;;;;;20.24;nan;99430.84;20415559;28;99338;-59
2022/01/09 05:47:12;;;;;;;9.47;6.30;;;;;;;20.28;nan;99426.97;20408893;28;99276;-59
2022/01/09 05:57:13;;;;;;;9.32;6.13;;;;;;;20.31;nan;99426.69;20397408;28;101862;-60
2022/01/09 06:07:15;;;;;;;9.80;6.47;;;;;;;20.37;nan;99429.75;20395180;28;98930;-61
2022/01/09 06:17:15;;;;;;;8.32;6.05;;;;;;;20.43;nan;99431.81;20390174;28;101407;-60
2022/01/09 06:27:16;;;;;;;9.18;6.47;;;;;;;20.46;nan;99419.25;20437466;28;101486;-60
2022/01/09 06:37:18;;;;;;;10.57;6.38;;;;;;;20.51;nan;99420.63;20452487;28;101301;-60
2022/01/09 06:47:18;;;;;;;14.23;6.13;;;;;;;20.55;nan;99429.91;20388603;28;103064;-60
2022/01/09 06:57:20;;;;;;;9.80;6.43;;;;;;;20.57;nan;99423.53;20410193;28;99059;-61
2022/01/09 07:07:21;;;;;;;17.98;6.35;;;;;;;20.68;nan;99426.97;20387052;28;101707;-61
2022/01/09 07:17:22;;;;;;;10.63;6.63;;;;;;;20.81;nan;99421.47;20389469;28;101302;-60
2022/01/09 07:27:22;;;;;;;11.13;5.75;;;;;;;20.96;nan;99422.72;20379055;28;99813;-61
2022/01/09 07:37:30;;;;;;;10.37;6.20;;;;;;;21.05;nan;99428.94;20387721;28;103644;-62
2022/01/09 07:47:34;;;;;;;23.08;6.45;;;;;;;21.12;nan;99416.88;20466664;27;105540;-61
2022/01/09 07:57:35;;;;;;;16.52;6.22;;;;;;;21.14;nan;99409.66;20404447;28;103214;-62
2022/01/09 08:07:37;;;;;;;9.23;6.47;;;;;;;21.17;nan;99419.06;20408173;28;101458;-61
2022/01/09 08:17:42;;;;;;;9.40;5.97;;;;;;;21.23;nan;99429.84;20402993;28;103115;-62
2022/01/09 08:27:43;;;;;;;9.82;5.80;;;;;;;21.28;nan;99416.28;20404787;28;99431;-60
2022/01/09 08:37:44;;;;;;;9.25;6.25;;;;;;;21.31;nan;99415.16;20402645;28;101490;-61
2022/01/09 08:47:46;;;;;;;10.93;6.43;;;;;;;21.36;nan;99412.91;20406897;28;102037;-61
2022/01/09 08:57:47;;;;;;;14.57;7.45;;;;;;;21.40;nan;99424.84;20402068;28;101504;-61
2022/01/09 09:07:49;;;;;;;11.32;7.30;;;;;;;21.43;nan;99420.13;20401456;28;99143;-61
2022/01/09 09:17:50;;;;;;;12.02;7.07;;;;;;;21.47;nan;99420.66;20395339;28;103130;-62
2022/01/09 09:27:50;;;;;;;21.10;10.17;;;;;;;21.42;nan;99412.34;20394528;28;99885;-62
2022/01/09 09:37:51;;;;;;;23.48;8.75;;;;;;;21.49;nan;99413.41;20395030;28;99799;-61
2022/01/09 09:47:52;;;;;;;28.70;15.85;;;;;;;20.93;nan;99418.56;20382800;28;102795;-61
2022/01/09 09:57:53;;;;;;;22.23;12.60;;;;;;;21.03;nan;99417.72;20409962;28;100477;-61
2022/01/09 10:08:05;;;;;;;16.42;11.35;;;;;;;21.09;nan;99420.63;20419495;28;98878;-61
2022/01/09 10:18:06;;;;;;;19.13;11.30;;;;;;;21.22;nan;99428.19;20425410;28;97563;-61
2022/01/09 10:28:12;;;;;;;15.55;9.90;;;;;;;21.29;nan;99441.63;20478981;28;99340;-61
2022/01/09 10:38:17;;;;;;;22.77;10.30;;;;;;;21.38;nan;99427.59;20446717;28;98390;-62
2022/01/09 10:48:21;;;;;;;15.63;10.57;;;;;;;21.46;nan;99407.59;20434578;28;97664;-60
2022/01/09 10:58:23;;;;;;;17.13;9.70;;;;;;;21.53;nan;99379.72;20427955;28;101441;-63
2022/01/09 11:08:24;;;;;;;14.38;9.85;;;;;;;21.57;nan;99381.94;20429763;28;98926;-61
2022/01/09 11:18:26;;;;;;;18.92;10.38;;;;;;;21.55;nan;99369.88;20420668;28;97855;-61
2022/01/09 11:28:33;;;;;;;29.13;10.80;;;;;;;21.60;nan;99378.19;20416602;28;100962;-63
2022/01/09 11:38:53;;;;;;;26.45;11.23;;;;;;;21.64;nan;99374.31;20403159;28;97833;-61
2022/01/09 11:48:54;;;;;;;28.85;11.25;;;;;;;21.81;nan;99370.03;20401651;28;97658;-61
2022/01/09 11:59:27;;;;;;;21.48;12.13;;;;;;;21.98;nan;99360.50;20414435;28;99451;-62
2022/01/09 12:09:51;;;;;;;23.80;10.23;;;;;;;22.06;nan;99347.41;20427111;28;98105;-62
2022/01/09 12:19:54;;;;;;;21.25;11.02;;;;;;;21.83;nan;99339.09;20403076;28;101118;-61
2022/01/09 12:29:55;;;;;;;20.88;10.00;;;;;;;21.92;nan;99329.47;20399160;28;99848;-62
2022/01/09 12:39:56;;;;;;;17.88;9.48;;;;;;;21.82;nan;99313.72;20429238;28;104040;-60
2022/01/09 12:50:01;;;;;;;15.50;8.37;;;;;;;21.79;nan;99311.41;20423696;28;100979;-61
2022/01/09 13:00:02;;;;;;;14.13;8.80;;;;;;;21.73;nan;99320.72;20424535;28;97488;-61
2022/01/09 13:10:15;;;;;;;15.60;8.90;;;;;;;21.71;nan;99327.94;20409430;28;99256;-61
2022/01/09 13:20:19;;;;;;;13.55;8.00;;;;;;;21.66;nan;99338.09;20414840;28;101498;-60
2022/01/09 13:30:24;;;;;;;12.32;8.10;;;;;;;21.61;nan;99342.97;20426943;28;97451;-61
2022/01/09 13:40:25;;;;;;;9.93;7.18;;;;;;;21.58;nan;99319.53;20410704;28;99190;-61
2022/01/09 13:50:29;;;;;;;10.07;7.35;;;;;;;21.58;nan;99319.53;20468978;28;101678;-61
2022/01/09 14:00:32;;;;;;;13.48;7.13;;;;;;;21.61;nan;99318.44;20431544;28;101726;-60
2022/01/09 14:10:36;;;;;;;12.38;7.93;;;;;;;21.58;nan;99317.75;20415882;28;97701;-61
2022/01/09 14:20:41;;;;;;;13.05;7.85;;;;;;;21.60;nan;99322.88;20428357;28;101296;-60
2022/01/09 14:30:45;;;;;;;12.43;6.93;;;;;;;21.57;nan;99310.00;20442975;28;97455;-61
2022/01/09 14:40:52;;;;;;;11.25;7.22;;;;;;;21.55;nan;99317.19;20437537;28;100699;-61
2022/01/09 14:50:54;;;;;;;15.88;6.55;;;;;;;21.51;nan;99314.03;20412225;28;99136;-61
2022/01/09 15:00:56;;;;;;;12.00;6.57;;;;;;;21.51;nan;99329.81;20405788;28;98349;-61
2022/01/09 15:10:58;;;;;;;12.07;6.60;;;;;;;21.44;nan;99332.19;20418261;28;98755;-60
2022/01/09 15:20:58;;;;;;;10.95;6.28;;;;;;;21.40;nan;99335.31;20413752;28;98346;-60
2022/01/09 15:31:37;;;;;;;13.10;6.15;;;;;;;21.39;nan;99347.63;20407617;28;102389;-61
2022/01/09 15:41:37;;;;;;;11.85;6.05;;;;;;;21.36;nan;99353.19;20455514;28;102739;-61
2022/01/09 15:51:39;;;;;;;12.70;6.70;;;;;;;21.29;nan;99362.63;20422448;28;101352;-60
2022/01/09 16:01:42;;;;;;;9.85;6.68;;;;;;;21.30;nan;99390.63;20435198;28;98916;-61
2022/01/09 16:11:43;;;;;;;;;;;;;;;21.34;nan;99405.16;20424971;28;99827;-61
2022/01/09 16:21:44;;;;;;;13.07;6.20;;;;;;;21.30;nan;99421.38;20456158;28;101181;-61
2022/01/09 16:31:45;;;;;;;11.40;5.95;;;;;;;21.31;nan;99430.94;20452963;28;100126;-61
2022/01/09 16:41:47;;;;;;;11.82;5.60;;;;;;;21.36;nan;99439.25;20423347;28;101019;-61
2022/01/09 16:51:47;;;;;;;15.05;6.53;;;;;;;21.35;nan;99443.69;20402120;28;98831;-61
2022/01/09 17:01:48;;;;;;;10.38;5.90;;;;;;;21.33;nan;99440.38;20407714;28;98554;-62
2022/01/09 17:11:48;;;;;;;8.13;5.35;;;;;;;21.29;nan;99436.38;20412086;28;99010;-62
2022/01/09 17:21:49;;;;;;;7.78;5.25;;;;;;;21.27;nan;99449.66;20442328;28;101110;-62
2022/01/09 17:31:51;;;;;;;7.50;5.45;;;;;;;21.24;nan;99460.47;20431912;28;99010;-62
2022/01/09 17:41:51;;;;;;;8.57;5.47;;;;;;;21.24;nan;99472.84;20425195;28;102444;-61
2022/01/09 17:51:53;;;;;;;11.40;5.18;;;;;;;21.28;nan;99475.00;20413285;28;102181;-62
2022/01/09 18:01:54;;;;;;;9.07;5.63;;;;;;;21.32;nan;99491.38;20413850;28;98357;-62
2022/01/09 18:11:58;;;;;;;18.27;8.38;;;;;;;21.39;nan;99494.28;20417863;28;100962;-60
2022/01/09 18:21:59;;;;;;;16.00;7.97;;;;;;;21.38;nan;99497.88;20413435;28;101690;-61
2022/01/09 18:32:00;;;;;;;15.63;8.38;;;;;;;21.39;nan;99516.16;20424417;28;98851;-60
2022/01/09 18:42:00;;;;;;;15.80;8.13;;;;;;;21.41;nan;99521.28;20425218;28;101746;-61
2022/01/09 18:52:01;;;;;;;16.83;7.63;;;;;;;21.42;nan;99528.22;20420659;28;97802;-62
2022/01/09 19:02:04;;;;;;;12.00;7.22;;;;;;;21.41;nan;99535.28;20426245;28;97597;-62
2022/01/09 19:12:05;;;;;;;11.47;6.57;;;;;;;21.46;nan;99539.28;20430807;28;101087;-62
2022/01/09 19:22:05;;;;;;;13.25;7.65;;;;;;;21.41;nan;99542.34;20408498;28;98517;-61
2022/01/09 19:32:06;;;;;;;12.25;7.60;;;;;;;21.38;nan;99545.28;20399634;28;103582;-61
2022/01/09 19:42:07;;;;;;;17.13;10.57;;;;;;;21.34;nan;99542.09;20403741;28;100998;-62
2022/01/09 19:52:10;;;;;;;16.65;9.55;;;;;;;21.28;nan;99546.09;20410230;28;97514;-62
2022/01/09 20:02:11;;;;;;;;;;;;;;;21.27;nan;99562.06;20414088;28;99439;-62
2022/01/09 20:12:12;;;;;;;18.63;10.35;;;;;;;21.17;nan;99553.34;20412915;28;100984;-62
2022/01/09 20:22:13;;;;;;;15.85;10.82;;;;;;;21.16;nan;99554.31;20410453;28;99491;-61
2022/01/09 20:32:14;;;;;;;15.60;9.68;;;;;;;21.14;nan;99566.78;20415939;28;101281;-61
2022/01/09 20:42:14;;;;;;;15.35;9.02;;;;;;;21.10;nan;99569.69;20414561;28;100630;-62
2022/01/09 20:52:14;;;;;;;12.93;9.13;;;;;;;21.09;nan;99569.81;20410288;28;99210;-62
2022/01/09 21:02:17;;;;;;;11.77;8.32;;;;;;;21.04;nan;99569.41;20413924;28;99520;-61
2022/01/09 21:12:17;;;;;;;12.70;8.10;;;;;;;20.99;nan;99564.53;20413806;28;102279;-62
2022/01/09 21:22:19;;;;;;;11.00;7.70;;;;;;;20.95;nan;99569.25;20409478;28;99958;-61
2022/01/09 21:32:20;;;;;;;10.52;7.90;;;;;;;20.91;nan;99573.13;20410127;28;101443;-61
2022/01/09 21:42:21;;;;;;;11.93;8.07;;;;;;;20.90;nan;99581.16;20409446;28;102677;-61
2022/01/09 21:52:24;;;;;;;11.50;7.75;;;;;;;20.85;nan;99581.56;20408979;28;98113;-61
2022/01/09 22:02:24;;;;;;;9.93;7.27;;;;;;;20.83;nan;99596.66;20410835;28;99207;-61
2022/01/09 22:12:26;;;;;;;9.25;7.03;;;;;;;20.79;nan;99580.31;20423326;28;102275;-62
2022/01/09 22:22:28;;;;;;;11.88;6.93;;;;;;;20.76;nan;99596.38;20421333;28;98880;-61
2022/01/09 22:32:29;;;;;;;10.80;7.15;;;;;;;20.72;nan;99596.78;20420976;28;99593;-63
2022/01/09 22:42:31;;;;;;;10.23;7.20;;;;;;;20.69;nan;99592.59;20419187;28;101883;-61
2022/01/09 22:52:31;;;;;;;9.02;7.35;;;;;;;20.67;nan;99601.59;20422640;28;101618;-61
2022/01/09 23:02:32;;;;;;;9.25;6.82;;;;;;;20.63;nan;99598.41;20418284;28;101834;-62
2022/01/09 23:12:33;;;;;;;9.13;6.45;;;;;;;20.57;nan;99599.75;20419530;28;100681;-62
2022/01/09 23:22:33;;;;;;;10.73;7.28;;;;;;;20.55;nan;99606.13;20408790;28;101294;-62
2022/01/09 23:32:35;;;;;;;10.85;7.63;;;;;;;20.52;nan;99603.75;20407672;28;100439;-61
2022/01/09 23:42:36;;;;;;;10.07;7.15;;;;;;;20.48;nan;99601.38;20412195;28;98747;-62
2022/01/09 23:52:38;;;;;;;8.95;6.18;;;;;;;20.44;nan;99599.97;20410586;28;99553;-62
